Terminal Aerodrome Forecast
Issued by NWS Newport/Morehead City, NC

Home | Current Version | Previous Version | Graphics & Text | Print | Product List | Glossary On
Versions: 1 2 3 4 5 6 7 8 9 10 11 12 13 14 15 16 17 18 19
000
FTUS42 KMHX 140500 RRA
TAFEWN
TAF
KEWN 140543Z 1406/1506 17006KT P6SM SCT030 SCT250
     FM141400 17013G23KT P6SM BKN035 OVC200
     FM150100 16010KT P6SM VCSH BKN015=

USA.gov is the U.S. government's official web portal to all federal, state and local government web resources and services.